Arbor, Missouri
Current Conditions -  °F | °C
As of 3:53 PM on Tuesday 25 Nov 2014 (Local Time) from KCGI Reporting Station
Clear Clear  
Wind Chill: 44°   Ceiling: Unl
Heat Index: 44°   Visibility: 10mi
Dew Point: 24°   Wind: 0mph
Humidity: 45%   Direction: NA
Pressure: 30.16"   Gusts: NA
Location:  37.1651°N, 89.623°W
Report Text: KCGI 252153Z 00000KT 10SM CLR 07/M04 A3016 RMK AO2 SLP213 T00671044
Loading
Personal Weather Stations






























Interactive Weather Map New forecast layout! Learn more

10-Day Weather Forecast

Advertisements
Track Severe Weather on mobile